Ana Sayfa
METAR-TAF:

METAR-TAF

Havaalanları :

Madrid Barajas Uluslararası Havalimanı

Madrid, İspanya

Enlem: 40-27N, Boylam: 003-33W, yükseklik: 609 m

Güncel hava durumu gözlemi

Rapor saat 13:30 UTC de 32 dakika önce yapıldı.
Rüzgar güneydan 1 kt
Sıcaklık 20°C
Nem 26%
Basınç 1032 hPa
Görüş mesafesi 10 km veya daha fazla
1500 m altında bulut yok ve kümülonimbus yok

METAR: LEMD 221330Z 19001KT CAVOK 20/00 Q1032 NOSIG

Saat: 15:02 (14:02 UTC)

Tahmin

Rapor saat 11:00 UTC de 3 saat ve 2 dakika önce yapıldı.
Ayın 22'si saat 12 UTC'den ayın 23'si saat 18 UTC'ye kadar geçerli Tahmin
Rüzgar değişken yönden 4 kt
Görüş mesafesi 10 km veya daha fazla
1500 m altında bulut yok ve kümülonimbus yok
Olasılık 30% :
Geçici
ayın 22'si saat 19 UTC'den ayın 23'si saat 10 UTC'ye kadar
Rüzgar kuzey/kuzeydoğudan 10 kt

TAF: LEMD 221100Z 2212/2318 VRB04KT CAVOK TX21/2216Z TNM00/2306Z PROB30 TEMPO 2219/2310 02010KT

4.000'den fazla havaalanı için hava durumu gözlemleri ve tahminleri (METAR ve TAF raporları).

Kullanılabilir istasyonlar harita üzerinde sarı ve kırmızı noktalarla gösterilir.

İstasyonun adını görmek için fareyi noktanın üzerinde gezdirin.

Sonrasında hava gözlem ve tahminlerini görmek için tıklayın.

Haritayı değiştirmek için: yaklaştırmak için siyah artı işaretli yeşil düğmeye ve uzaklaştırmak için de eksi işaretli düğmeye hızla tıklayın; bitişik haritalar için yeşil okları kullanın.


METAR-TAF: